createdAt,value
2019-04-30T00:00:57.814Z,15.5
2019-04-30T00:06:02.936Z,15.4
2019-04-30T00:11:19.556Z,16.1
2019-04-30T00:16:16.225Z,15.1
2019-04-30T00:21:21.253Z,15.7
2019-04-30T00:26:26.396Z,15.4
2019-04-30T00:31:31.695Z,16.4
2019-04-30T00:36:38.617Z,16.7
2019-04-30T00:41:47.534Z,14.9
2019-04-30T00:46:53.032Z,14.5
2019-04-30T00:51:59.188Z,14.6
2019-04-30T00:57:07.565Z,14.7
2019-04-30T01:02:02.942Z,15.2
2019-04-30T01:07:09.589Z,14.7
2019-04-30T01:12:25.185Z,16.1
2019-04-30T01:17:18.759Z,15.8
2019-04-30T01:22:32.803Z,16.8
2019-04-30T01:27:29.204Z,15.8
2019-04-30T01:32:34.346Z,16.5
2019-04-30T01:37:39.550Z,17.3
2019-04-30T01:42:51.932Z,16.7
2019-04-30T01:47:49.464Z,16.3
2019-04-30T01:52:54.808Z,17.3
2019-04-30T01:58:00.002Z,15.7
2019-04-30T02:03:05.337Z,15.1
2019-04-30T02:08:10.453Z,17.7
2019-04-30T02:13:15.647Z,17.2
2019-04-30T02:18:22.626Z,17.3
2019-04-30T02:23:29.523Z,17.6
2019-04-30T02:28:34.843Z,17.7
2019-04-30T02:33:41.414Z,18.7
2019-04-30T02:38:49.228Z,17.6
2019-04-30T02:43:54.926Z,17.6
2019-04-30T02:49:00.778Z,16.6
2019-04-30T02:54:06.166Z,17.6
2019-04-30T02:59:14.213Z,18.1
2019-04-30T03:04:20.536Z,16.7
2019-04-30T03:09:26.002Z,16.1
2019-04-30T03:14:33.357Z,15.8
2019-04-30T03:19:41.071Z,17.2
2019-04-30T03:24:46.568Z,18.1
2019-04-30T03:29:54.729Z,18.3
2019-04-30T03:35:04.179Z,18.5
2019-04-30T03:40:13.833Z,20.3
2019-04-30T03:45:21.429Z,17.9
2019-04-30T03:50:31.353Z,15.8
2019-04-30T03:55:30.994Z,16.4
2019-04-30T04:00:35.894Z,16.8
2019-04-30T04:05:35.918Z,17.9
2019-04-30T04:10:43.521Z,17.9
2019-04-30T04:15:50.858Z,19.6
2019-04-30T04:21:16.602Z,19.2
2019-04-30T04:26:04.971Z,20.4
2019-04-30T04:31:12.660Z,19.9
2019-04-30T04:36:19.832Z,19.3
2019-04-30T04:41:25.428Z,21.9
2019-04-30T04:46:33.045Z,18.9
2019-04-30T04:51:42.529Z,19.1
2019-04-30T04:56:40.853Z,19.5
2019-04-30T05:01:45.970Z,19.4
2019-04-30T05:06:53.185Z,19.4
2019-04-30T05:11:59.412Z,19.8
2019-04-30T05:17:04.531Z,18.9
2019-04-30T05:22:10.083Z,19.1
2019-04-30T05:27:15.636Z,18.6
2019-04-30T05:32:21.122Z,19.2
2019-04-30T05:37:28.035Z,19.6
2019-04-30T05:42:33.864Z,20
2019-04-30T05:47:39.858Z,19.6
2019-04-30T05:52:45.542Z,19.7
2019-04-30T05:57:58.766Z,19.2
2019-04-30T06:02:56.742Z,19.1
2019-04-30T06:08:03.621Z,19.2
2019-04-30T06:13:10.668Z,22.7
2019-04-30T06:18:15.104Z,19.9
2019-04-30T06:23:22.193Z,20
2019-04-30T06:28:29.143Z,18.7
2019-04-30T06:33:34.692Z,19.2
2019-04-30T06:38:43.346Z,19.4
2019-04-30T06:43:49.733Z,20.2
2019-04-30T06:48:55.004Z,19.8
2019-04-30T06:54:00.381Z,19.6
2019-04-30T06:59:05.438Z,19.5
2019-04-30T07:04:11.283Z,18.9
2019-04-30T07:09:16.375Z,18.2
2019-04-30T07:14:23.184Z,17.7
2019-04-30T07:19:50.915Z,16.6
2019-04-30T07:24:33.242Z,14.3
2019-04-30T07:29:40.075Z,13.2
2019-04-30T07:34:45.481Z,12.9
2019-04-30T07:39:53.073Z,13
2019-04-30T07:45:01.478Z,12
2019-04-30T07:50:10.582Z,11.7
2019-04-30T07:55:09.703Z,10.2
2019-04-30T08:00:40.216Z,9.9
2019-04-30T08:06:15.378Z,9.4
2019-04-30T08:10:29.517Z,9.6
2019-04-30T08:15:30.614Z,9.8
2019-04-30T08:20:34.549Z,9.3
2019-04-30T08:25:40.004Z,8.8
2019-04-30T08:30:45.223Z,7
2019-04-30T08:35:52.417Z,5.5
2019-04-30T08:41:01.452Z,4.8
2019-04-30T08:46:06.508Z,5.1
2019-04-30T08:51:13.750Z,5
2019-04-30T08:56:10.955Z,3.9
2019-04-30T09:01:16.636Z,3.8
2019-04-30T09:06:23.991Z,3.7
2019-04-30T09:11:52.792Z,4
2019-04-30T09:16:30.401Z,3.5
2019-04-30T09:21:35.644Z,3.9
2019-04-30T09:26:44.249Z,2.5
2019-04-30T09:31:50.233Z,2.1
2019-04-30T09:36:55.460Z,2.1
2019-04-30T09:42:01.852Z,2.3
2019-04-30T09:47:08.842Z,2.7
2019-04-30T09:52:14.436Z,3.5
2019-04-30T09:57:20.152Z,3.5
2019-04-30T10:02:25.455Z,3.6
2019-04-30T10:07:32.592Z,5.6
2019-04-30T10:12:36.329Z,4.5
2019-04-30T10:17:42.809Z,3.9
2019-04-30T10:22:49.497Z,3.1
2019-04-30T10:27:55.089Z,3.1
2019-04-30T10:33:00.414Z,3.2
2019-04-30T10:38:05.313Z,3
2019-04-30T10:43:10.517Z,2.6
2019-04-30T10:48:15.586Z,2
2019-04-30T10:53:20.814Z,3
2019-04-30T10:58:24.178Z,3.8
2019-04-30T11:03:29.982Z,3.5
2019-04-30T11:08:35.224Z,4.2
2019-04-30T11:13:40.547Z,4
2019-04-30T11:18:46.029Z,3.4
2019-04-30T11:23:52.539Z,3.8
2019-04-30T11:28:58.641Z,3.4
2019-04-30T11:34:05.046Z,4.9
2019-04-30T11:39:10.122Z,3.9
2019-04-30T11:44:31.379Z,2.9
2019-04-30T11:49:16.751Z,3.2
2019-04-30T11:54:21.677Z,2.7
2019-04-30T11:59:26.634Z,2.7
2019-04-30T12:04:34.112Z,3.8
2019-04-30T12:09:39.513Z,3.8
2019-04-30T12:14:43.335Z,4.6
2019-04-30T12:19:49.712Z,6.1
2019-04-30T12:25:05.391Z,5.7
2019-04-30T12:30:00.357Z,6.4
2019-04-30T12:35:05.700Z,5.9
2019-04-30T12:40:28.621Z,6.4
2019-04-30T12:45:16.693Z,7.1
2019-04-30T12:50:23.656Z,6
2019-04-30T12:55:26.384Z,5.7
2019-04-30T13:00:33.613Z,8
2019-04-30T13:05:40.432Z,6.1
2019-04-30T13:10:47.164Z,6
2019-04-30T13:15:54.614Z,5.8
2019-04-30T13:21:00.011Z,6.8
2019-04-30T13:26:05.585Z,6.7
2019-04-30T13:31:12.760Z,5.3
2019-04-30T13:36:19.659Z,4.9
2019-04-30T13:41:27.360Z,6.7
2019-04-30T13:46:34.047Z,5.5
2019-04-30T13:51:39.176Z,5.7
2019-04-30T13:56:46.480Z,6.4
2019-04-30T14:01:53.749Z,6.5
2019-04-30T14:06:58.821Z,7.8
2019-04-30T14:12:03.897Z,10.6
2019-04-30T14:17:10.144Z,12.5
2019-04-30T14:22:15.297Z,12.3
2019-04-30T14:27:20.369Z,12.5
2019-04-30T14:32:25.309Z,12.2
2019-04-30T14:37:32.733Z,12.2
2019-04-30T14:42:38.429Z,11.9
2019-04-30T14:47:47.833Z,10.8
2019-04-30T14:52:47.987Z,10.3
2019-04-30T14:57:52.795Z,10.7
2019-04-30T15:02:59.432Z,11.6
2019-04-30T15:08:10.542Z,11.1
2019-04-30T15:13:15.732Z,10.7
2019-04-30T15:18:23.132Z,9.1
2019-04-30T15:23:28.183Z,5
2019-04-30T15:28:33.602Z,4.6
2019-04-30T15:33:38.816Z,3.6
2019-04-30T15:38:45.946Z,3
2019-04-30T15:43:51.123Z,3
2019-04-30T15:48:56.353Z,4
2019-04-30T15:54:01.405Z,4.7
2019-04-30T15:59:06.531Z,5.7
2019-04-30T16:04:16.221Z,6
2019-04-30T16:09:23.158Z,5.8
2019-04-30T16:14:30.256Z,6.9
2019-04-30T16:19:35.777Z,6.2
2019-04-30T16:24:40.890Z,6.5
2019-04-30T16:29:49.750Z,6.6
2019-04-30T16:34:55.166Z,7.1
2019-04-30T16:40:00.142Z,6.1
2019-04-30T16:45:03.585Z,6.3
2019-04-30T16:50:09.979Z,6.3
2019-04-30T16:55:15.897Z,7.2
2019-04-30T17:00:24.556Z,7.7
2019-04-30T17:05:33.015Z,8.3
2019-04-30T17:10:40.190Z,8.7
2019-04-30T17:15:47.491Z,8.9
2019-04-30T17:20:52.971Z,8.3
2019-04-30T17:25:58.118Z,7.8
2019-04-30T17:31:03.682Z,7.8
2019-04-30T17:36:11.827Z,7.9
2019-04-30T17:41:12.257Z,8.8
2019-04-30T17:46:21.038Z,11.4
2019-04-30T17:51:26.670Z,12
2019-04-30T17:56:34.488Z,12.4
2019-04-30T18:01:40.978Z,10.4
2019-04-30T18:06:40.989Z,11
2019-04-30T18:11:45.945Z,12.3
2019-04-30T18:16:52.949Z,15.5
2019-04-30T18:22:00.879Z,9.9
2019-04-30T18:27:05.940Z,8.5
2019-04-30T18:32:11.316Z,9.3
2019-04-30T18:37:20.122Z,13.1
2019-04-30T18:42:25.412Z,14.8
2019-04-30T18:47:32.652Z,11.1
2019-04-30T18:52:32.955Z,10.7
2019-04-30T18:57:37.924Z,8.6
2019-04-30T19:02:43.209Z,6.9
2019-04-30T19:07:50.931Z,7
2019-04-30T19:12:58.945Z,6.4
2019-04-30T19:18:07.406Z,6.8
2019-04-30T19:23:12.785Z,6.7
2019-04-30T19:28:19.575Z,6.5
2019-04-30T19:33:25.122Z,6.7
2019-04-30T19:38:30.142Z,6.9
2019-04-30T19:43:35.390Z,6.1
2019-04-30T19:48:42.491Z,6.6
2019-04-30T19:53:49.771Z,6.5
2019-04-30T19:59:05.521Z,6.4
2019-04-30T20:04:03.181Z,5.7
2019-04-30T20:09:10.062Z,5.8
2019-04-30T20:14:15.525Z,6.2
2019-04-30T20:19:22.309Z,5
2019-04-30T20:24:29.339Z,3.9
2019-04-30T20:29:34.980Z,4.4
2019-04-30T20:34:40.120Z,3.9
2019-04-30T20:39:45.089Z,4.2
2019-04-30T20:44:50.286Z,4
2019-04-30T20:49:55.219Z,3.6
2019-04-30T20:55:00.390Z,3.7
2019-04-30T21:00:05.648Z,4.4
2019-04-30T21:05:10.793Z,4.8
2019-04-30T21:10:20.764Z,6
2019-04-30T21:15:26.169Z,7.7
2019-04-30T21:20:33.317Z,9.5
2019-04-30T21:25:39.589Z,10.5
2019-04-30T21:30:44.924Z,11.9
2019-04-30T21:35:51.725Z,12.2
2019-04-30T21:41:01.740Z,12.8
2019-04-30T21:45:58.967Z,13
2019-04-30T21:51:04.513Z,13.2
2019-04-30T21:56:12.493Z,13.9
2019-04-30T22:01:17.690Z,14.2
2019-04-30T22:06:23.152Z,14
2019-04-30T22:11:30.523Z,14
2019-04-30T22:16:36.088Z,14
2019-04-30T22:21:43.169Z,14.1
2019-04-30T22:26:48.372Z,13.9
2019-04-30T22:31:53.480Z,14
2019-04-30T22:36:59.517Z,14.3
2019-04-30T22:42:04.708Z,13.9
2019-04-30T22:47:09.949Z,14.1
2019-04-30T22:52:10.051Z,13.5
2019-04-30T22:57:15.111Z,13.5
2019-04-30T23:02:20.235Z,14
2019-04-30T23:07:25.303Z,13.7
2019-04-30T23:12:30.270Z,13.4
2019-04-30T23:17:35.424Z,13.2
2019-04-30T23:22:40.654Z,13.2
2019-04-30T23:27:45.907Z,12.4
2019-04-30T23:32:50.980Z,11.7
2019-04-30T23:37:56.240Z,11.9
2019-04-30T23:43:01.346Z,11.4
2019-04-30T23:48:06.584Z,11
2019-04-30T23:53:11.730Z,10.4
2019-04-30T23:58:17.194Z,9.6
